createdAt,value
2017-08-23T00:00:58.637Z,1005.4
2017-08-23T00:02:00.050Z,1005.3
2017-08-23T00:03:01.521Z,1005.3
2017-08-23T00:04:02.922Z,1005.4
2017-08-23T00:05:04.398Z,1005.4
2017-08-23T00:06:05.803Z,1005.5
2017-08-23T00:07:07.282Z,1005.5
2017-08-23T00:08:08.686Z,1005.5
2017-08-23T00:09:10.088Z,1005.5
2017-08-23T00:10:11.486Z,1005.6
2017-08-23T00:11:12.895Z,1005.6
2017-08-23T00:12:14.390Z,1005.6
2017-08-23T00:13:15.794Z,1005.6
2017-08-23T00:14:17.265Z,1005.6
2017-08-23T00:15:18.676Z,1005.5
2017-08-23T00:16:20.140Z,1005.5
2017-08-23T00:17:21.554Z,1005.6
2017-08-23T00:18:23.021Z,1005.6
2017-08-23T00:19:24.434Z,1005.7
2017-08-23T00:20:25.897Z,1005.8
2017-08-23T00:21:27.305Z,1005.8
2017-08-23T00:22:28.805Z,1005.8
2017-08-23T00:23:30.201Z,1005.7
2017-08-23T00:24:31.603Z,1005.8
2017-08-23T00:25:33.103Z,1005.8
2017-08-23T00:26:34.507Z,1005.9
2017-08-23T00:27:35.912Z,1005.9
2017-08-23T00:28:37.425Z,1005.9
2017-08-23T00:29:38.828Z,1005.9
2017-08-23T00:30:40.231Z,1006.0
2017-08-23T00:31:41.756Z,1006.1
2017-08-23T00:32:43.163Z,1006.1
2017-08-23T00:33:44.564Z,1006.1
2017-08-23T00:34:46.062Z,1006.1
2017-08-23T00:35:47.471Z,1006.1
2017-08-23T00:36:48.948Z,1006.1
2017-08-23T00:37:50.351Z,1006.2
2017-08-23T00:38:51.825Z,1006.2
2017-08-23T00:39:53.229Z,1006.2
2017-08-23T00:40:54.704Z,1006.2
2017-08-23T00:41:56.112Z,1006.2
2017-08-23T00:42:57.590Z,1006.2
2017-08-23T00:43:58.994Z,1006.1
2017-08-23T00:45:00.467Z,1006.1
2017-08-23T00:46:01.870Z,1006.1
2017-08-23T00:47:03.347Z,1006.0
2017-08-23T00:48:04.755Z,1006.1
2017-08-23T00:49:06.231Z,1006.0
2017-08-23T00:50:07.635Z,1006.1
2017-08-23T00:51:09.111Z,1006.1
2017-08-23T00:52:10.517Z,1006.1
2017-08-23T00:53:11.992Z,1005.9
2017-08-23T00:54:13.395Z,1006.0
2017-08-23T00:55:14.798Z,1006.0
2017-08-23T00:56:16.311Z,1006.0
2017-08-23T00:57:17.729Z,1005.9
2017-08-23T00:58:19.129Z,1005.9
2017-08-23T00:59:20.632Z,1005.8
2017-08-23T01:00:22.034Z,1005.9
2017-08-23T01:01:23.439Z,1005.8
2017-08-23T01:02:24.960Z,1005.8
2017-08-23T01:03:26.358Z,1005.7
2017-08-23T01:04:27.771Z,1005.7
2017-08-23T01:05:29.279Z,1005.7
2017-08-23T01:06:30.681Z,1005.7
2017-08-23T01:07:32.084Z,1005.8
2017-08-23T01:08:33.596Z,1005.8
2017-08-23T01:09:35.002Z,1005.8
2017-08-23T01:10:36.548Z,1005.7
2017-08-23T01:11:37.974Z,1005.8
2017-08-23T01:12:39.470Z,1005.8
2017-08-23T01:13:40.871Z,1005.8
2017-08-23T01:14:42.341Z,1005.7
2017-08-23T01:15:43.745Z,1005.7
2017-08-23T01:16:45.223Z,1005.7
2017-08-23T01:17:46.629Z,1005.7
2017-08-23T01:18:48.070Z,1005.7
2017-08-23T01:19:49.542Z,1005.7
2017-08-23T01:20:50.953Z,1005.6
2017-08-23T01:21:52.357Z,1005.7
2017-08-23T01:22:53.865Z,1005.7
2017-08-23T01:23:55.267Z,1005.6
2017-08-23T01:24:56.670Z,1005.6
2017-08-23T01:25:58.185Z,1005.7
2017-08-23T01:26:59.589Z,1005.7
2017-08-23T01:28:01.065Z,1005.8
2017-08-23T01:29:02.515Z,1005.7
2017-08-23T01:30:03.920Z,1005.8
2017-08-23T01:31:05.386Z,1005.7
2017-08-23T01:32:06.789Z,1005.8
2017-08-23T01:33:08.197Z,1005.8
2017-08-23T01:34:09.706Z,1005.8
2017-08-23T01:35:11.122Z,1005.8
2017-08-23T01:36:12.590Z,1005.7
2017-08-23T01:37:13.992Z,1005.8
2017-08-23T01:38:15.469Z,1005.8
2017-08-23T01:39:16.898Z,1005.8
2017-08-23T01:40:18.302Z,1005.8
2017-08-23T01:41:19.789Z,1005.8
2017-08-23T01:42:21.194Z,1005.8
2017-08-23T01:43:22.599Z,1005.8
2017-08-23T01:44:24.112Z,1005.9
2017-08-23T01:45:25.516Z,1005.8
2017-08-23T01:46:26.919Z,1005.8
2017-08-23T01:47:28.436Z,1005.8
2017-08-23T01:48:29.838Z,1005.8
2017-08-23T01:49:31.238Z,1005.9
2017-08-23T01:50:32.754Z,1005.9
2017-08-23T01:51:34.159Z,1005.9
2017-08-23T01:52:35.633Z,1005.8
2017-08-23T01:53:37.039Z,1005.9
2017-08-23T01:54:38.514Z,1005.9
2017-08-23T01:55:39.920Z,1006.0
2017-08-23T01:56:41.424Z,1006.0
2017-08-23T01:57:42.801Z,1006.1
2017-08-23T01:58:44.278Z,1006.1
2017-08-23T01:59:45.679Z,1006.1
2017-08-23T02:00:47.082Z,1006.1
2017-08-23T02:01:48.602Z,1006.2
2017-08-23T02:02:50.000Z,1006.2
2017-08-23T02:03:51.401Z,1006.3
2017-08-23T02:04:52.823Z,1006.3
2017-08-23T02:05:54.227Z,1006.4
2017-08-23T02:06:55.630Z,1006.4
2017-08-23T02:07:57.135Z,1006.5
2017-08-23T02:08:58.541Z,1006.5
2017-08-23T02:09:59.942Z,1006.5
2017-08-23T02:11:01.458Z,1006.5
2017-08-23T02:12:02.859Z,1006.6
2017-08-23T02:13:04.234Z,1006.5
2017-08-23T02:14:05.640Z,1006.6
2017-08-23T02:15:07.115Z,1006.6
2017-08-23T02:16:08.520Z,1006.6
2017-08-23T02:17:10.000Z,1006.7
2017-08-23T02:18:11.403Z,1006.6
2017-08-23T02:19:12.879Z,1006.6
2017-08-23T02:20:14.322Z,1006.7
2017-08-23T02:21:15.760Z,1006.8
2017-08-23T02:22:17.162Z,1006.8
2017-08-23T02:23:18.639Z,1006.8
2017-08-23T02:24:20.043Z,1006.9
2017-08-23T02:25:21.519Z,1007.0
2017-08-23T02:26:22.922Z,1007.0
2017-08-23T02:27:24.403Z,1007.0
2017-08-23T02:28:25.798Z,1007.1
2017-08-23T02:29:27.282Z,1007.2
2017-08-23T02:30:28.687Z,1007.1
2017-08-23T02:31:30.164Z,1007.2
2017-08-23T02:32:31.565Z,1007.2
2017-08-23T02:33:33.044Z,1007.2
2017-08-23T02:34:34.447Z,1007.2
2017-08-23T02:35:35.854Z,1007.2
2017-08-23T02:36:37.364Z,1007.2
2017-08-23T02:37:38.770Z,1007.2
2017-08-23T02:38:40.173Z,1007.2
2017-08-23T02:39:41.702Z,1007.2
2017-08-23T02:40:43.087Z,1007.2
2017-08-23T02:41:44.565Z,1007.2
2017-08-23T02:42:45.969Z,1007.2
2017-08-23T02:43:47.448Z,1007.2
2017-08-23T02:44:48.853Z,1007.2
2017-08-23T02:45:50.323Z,1007.2
2017-08-23T02:46:51.726Z,1007.1
2017-08-23T02:47:53.214Z,1007.1
2017-08-23T02:48:54.621Z,1007.1
2017-08-23T02:49:56.092Z,1007.0
2017-08-23T02:50:57.498Z,1007.0
2017-08-23T02:51:58.968Z,1006.9
2017-08-23T02:53:00.371Z,1006.9
2017-08-23T02:54:01.854Z,1006.9
2017-08-23T02:55:03.258Z,1006.9
2017-08-23T02:56:04.657Z,1006.9
2017-08-23T02:57:06.169Z,1006.8
2017-08-23T02:58:07.571Z,1006.8
2017-08-23T02:59:08.976Z,1006.8
2017-08-23T03:00:10.490Z,1006.8
2017-08-23T03:01:11.892Z,1006.8
2017-08-23T03:02:13.371Z,1006.8
2017-08-23T03:03:14.774Z,1006.8
2017-08-23T03:04:16.253Z,1006.8
2017-08-23T03:05:17.657Z,1006.7
2017-08-23T03:06:19.133Z,1006.7
2017-08-23T03:07:20.534Z,1006.7
2017-08-23T03:08:22.013Z,1006.7
2017-08-23T03:09:23.416Z,1006.7
2017-08-23T03:10:24.826Z,1006.7
2017-08-23T03:11:26.335Z,1006.7
2017-08-23T03:12:27.740Z,1006.8
2017-08-23T03:13:29.147Z,1006.8
2017-08-23T03:14:30.657Z,1006.8
2017-08-23T03:15:32.068Z,1006.8
2017-08-23T03:16:33.507Z,1006.9
2017-08-23T03:17:34.997Z,1006.8
2017-08-23T03:18:36.404Z,1006.9
2017-08-23T03:19:37.823Z,1006.9
2017-08-23T03:20:39.298Z,1006.9
2017-08-23T03:21:40.698Z,1006.9
2017-08-23T03:22:42.098Z,1006.9
2017-08-23T03:23:43.516Z,1006.9
2017-08-23T03:24:44.920Z,1006.9
2017-08-23T03:25:46.324Z,1006.8
2017-08-23T03:26:47.836Z,1006.8
2017-08-23T03:27:49.243Z,1006.8
2017-08-23T03:28:50.655Z,1006.8
2017-08-23T03:29:52.158Z,1006.8
2017-08-23T03:30:53.563Z,1006.8
2017-08-23T03:31:54.967Z,1006.7
2017-08-23T03:32:57.400Z,1006.7
2017-08-23T03:33:58.804Z,1006.7
2017-08-23T03:35:00.209Z,1006.7
2017-08-23T03:36:01.723Z,1006.7
2017-08-23T03:37:03.123Z,1006.7
2017-08-23T03:38:04.523Z,1006.7
2017-08-23T03:39:05.940Z,1006.7
2017-08-23T03:40:07.352Z,1006.6
2017-08-23T03:41:08.756Z,1006.6
2017-08-23T03:42:10.263Z,1006.6
2017-08-23T03:43:11.664Z,1006.6
2017-08-23T03:44:13.066Z,1006.6
2017-08-23T03:45:14.582Z,1006.6
2017-08-23T03:46:15.988Z,1006.6
2017-08-23T03:47:17.388Z,1006.6
2017-08-23T03:48:18.903Z,1006.6
2017-08-23T03:49:20.304Z,1006.6
2017-08-23T03:50:21.706Z,1006.7
2017-08-23T03:51:23.121Z,1006.6
2017-08-23T03:52:24.523Z,1006.7
2017-08-23T03:53:25.930Z,1006.7
2017-08-23T03:54:27.626Z,1006.7
2017-08-23T03:55:29.044Z,1006.7
2017-08-23T03:56:30.460Z,1006.7
2017-08-23T03:57:31.968Z,1006.8
2017-08-23T03:58:33.369Z,1006.7
2017-08-23T03:59:34.850Z,1006.7
2017-08-23T04:00:36.252Z,1006.7
2017-08-23T04:01:37.654Z,1006.7
2017-08-23T04:02:39.170Z,1006.8
2017-08-23T04:03:40.581Z,1006.8
2017-08-23T04:04:41.985Z,1006.8
2017-08-23T04:05:43.488Z,1006.8
2017-08-23T04:06:44.891Z,1006.9
2017-08-23T04:07:46.293Z,1006.8
2017-08-23T04:08:47.709Z,1006.9
2017-08-23T04:09:49.113Z,1006.9
2017-08-23T04:10:50.516Z,1006.9
2017-08-23T04:11:51.929Z,1007.0
2017-08-23T04:12:53.328Z,1006.9
2017-08-23T04:13:54.729Z,1006.9
2017-08-23T04:14:56.147Z,1006.9
2017-08-23T04:15:57.551Z,1006.9
2017-08-23T04:16:58.956Z,1006.9
2017-08-23T04:18:00.498Z,1006.9
2017-08-23T04:19:01.876Z,1006.9
2017-08-23T04:20:03.677Z,1006.9
2017-08-23T04:21:05.097Z,1006.9
2017-08-23T04:22:06.499Z,1007.0
2017-08-23T04:23:07.986Z,1006.9
2017-08-23T04:24:09.393Z,1006.9
2017-08-23T04:25:10.808Z,1006.9
2017-08-23T04:26:12.209Z,1007.0
2017-08-23T04:27:13.611Z,1007.0
2017-08-23T04:28:15.077Z,1007.0
2017-08-23T04:29:16.483Z,1007.0
2017-08-23T04:30:17.886Z,1007.1
2017-08-23T04:31:19.398Z,1007.1
2017-08-23T04:32:20.827Z,1007.1
2017-08-23T04:33:22.299Z,1007.1
2017-08-23T04:34:23.732Z,1007.1
2017-08-23T04:35:25.162Z,1007.1
2017-08-23T04:36:26.565Z,1007.1
2017-08-23T04:37:27.969Z,1007.1
2017-08-23T04:38:29.481Z,1007.1
2017-08-23T04:39:30.886Z,1007.1
2017-08-23T04:40:32.285Z,1007.2
2017-08-23T04:41:33.699Z,1007.1
2017-08-23T04:42:35.106Z,1007.1
2017-08-23T04:43:36.510Z,1007.1
2017-08-23T04:44:38.022Z,1007.2
2017-08-23T04:45:39.431Z,1007.2
2017-08-23T04:46:40.837Z,1007.3
2017-08-23T04:47:42.343Z,1007.3
2017-08-23T04:48:43.746Z,1007.4
2017-08-23T04:49:45.150Z,1007.5
2017-08-23T04:50:46.663Z,1007.6
2017-08-23T04:51:48.068Z,1007.6
2017-08-23T04:52:49.477Z,1007.7
2017-08-23T04:53:50.984Z,1007.7
2017-08-23T04:54:52.388Z,1007.8
2017-08-23T04:55:53.797Z,1007.9
2017-08-23T04:56:55.305Z,1008.0
2017-08-23T04:57:56.710Z,1008.1
2017-08-23T04:58:58.120Z,1008.1
2017-08-23T04:59:59.626Z,1008.2
2017-08-23T05:01:01.059Z,1008.3
2017-08-23T05:02:02.466Z,1008.5
2017-08-23T05:03:04.405Z,1008.6
2017-08-23T05:04:05.811Z,1008.6
2017-08-23T05:05:07.228Z,1008.6
2017-08-23T05:06:08.686Z,1008.8
2017-08-23T05:07:10.100Z,1008.8
2017-08-23T05:08:11.524Z,1008.9
2017-08-23T05:09:12.998Z,1009.0
2017-08-23T05:10:14.403Z,1009.2
2017-08-23T05:11:15.880Z,1009.2
2017-08-23T05:12:17.320Z,1009.3
2017-08-23T05:13:18.761Z,1009.4
2017-08-23T05:14:20.168Z,1009.5
2017-08-23T05:15:21.638Z,1009.6
2017-08-23T05:16:23.052Z,1009.7
2017-08-23T05:17:25.072Z,1009.9
2017-08-23T05:18:26.576Z,1010.1
2017-08-23T05:19:27.985Z,1010.2
2017-08-23T05:20:29.412Z,1010.2
2017-08-23T05:21:30.922Z,1010.4
2017-08-23T05:22:32.328Z,1010.5
2017-08-23T05:23:33.731Z,1010.6
2017-08-23T05:24:35.220Z,1010.7
2017-08-23T05:25:36.626Z,1010.9
2017-08-23T05:26:38.099Z,1011.0
2017-08-23T05:27:39.509Z,1011.1
2017-08-23T05:28:40.992Z,1011.2
2017-08-23T05:29:42.398Z,1011.3
2017-08-23T05:30:43.866Z,1011.5
2017-08-23T05:31:45.270Z,1011.6
2017-08-23T05:32:46.676Z,1011.7
2017-08-23T05:33:48.180Z,1011.9
2017-08-23T05:34:49.588Z,1012.0
2017-08-23T05:35:51.013Z,1012.1
2017-08-23T05:36:52.513Z,1012.3
2017-08-23T05:37:53.917Z,1012.4
2017-08-23T05:38:55.325Z,1012.4
2017-08-23T05:39:56.824Z,1012.5
2017-08-23T05:40:58.231Z,1012.6
2017-08-23T05:41:59.642Z,1012.6
2017-08-23T05:43:01.144Z,1012.7
2017-08-23T05:44:02.552Z,1012.8
2017-08-23T05:45:04.343Z,1012.9
2017-08-23T05:46:05.746Z,1012.9
2017-08-23T05:47:07.225Z,1012.9
2017-08-23T05:48:08.631Z,1013.0
2017-08-23T05:49:10.038Z,1013.1
2017-08-23T05:50:11.544Z,1013.2
2017-08-23T05:51:12.952Z,1013.2
2017-08-23T05:52:18.286Z,1013.3
2017-08-23T05:53:19.754Z,1013.4
2017-08-23T05:54:21.164Z,1013.4
2017-08-23T05:55:22.572Z,1013.5
2017-08-23T05:56:24.072Z,1013.5
2017-08-23T05:57:25.474Z,1013.6
2017-08-23T05:58:26.884Z,1013.6
2017-08-23T05:59:28.387Z,1013.7
2017-08-23T06:00:29.794Z,1013.8
2017-08-23T06:01:31.200Z,1013.9
2017-08-23T06:02:36.373Z,1014.0
2017-08-23T06:03:37.767Z,1014.1
2017-08-23T06:04:39.173Z,1014.3
2017-08-23T06:05:40.613Z,1014.5
2017-08-23T06:06:42.023Z,1014.6
2017-08-23T06:07:43.424Z,1014.7
2017-08-23T06:08:44.940Z,1014.8
2017-08-23T06:09:46.345Z,1014.7
2017-08-23T06:10:47.815Z,1014.8
2017-08-23T06:11:49.224Z,1014.9
2017-08-23T06:12:50.697Z,1015.0
2017-08-23T06:13:52.100Z,1015.1
2017-08-23T06:14:53.587Z,1015.2
2017-08-23T06:15:54.984Z,1015.4
2017-08-23T06:16:56.456Z,1015.5
2017-08-23T06:17:57.865Z,1015.6
2017-08-23T06:18:59.273Z,1015.8
2017-08-23T06:20:00.780Z,1016.0
2017-08-23T06:21:02.182Z,1016.1
2017-08-23T06:22:03.593Z,1016.3
2017-08-23T06:23:05.003Z,1016.4
2017-08-23T06:24:06.408Z,1016.6
2017-08-23T06:25:07.880Z,1016.7
2017-08-23T06:26:09.283Z,1016.9
2017-08-23T06:27:10.759Z,1016.9
2017-08-23T06:28:12.166Z,1017.0
2017-08-23T06:29:13.643Z,1017.1
2017-08-23T06:30:15.047Z,1017.2
2017-08-23T06:31:16.522Z,1017.3
2017-08-23T06:32:17.928Z,1017.4
2017-08-23T06:33:19.401Z,1017.5
2017-08-23T06:34:20.815Z,1017.7
2017-08-23T06:35:22.216Z,1017.8
2017-08-23T06:36:23.721Z,1017.8
2017-08-23T06:37:25.128Z,1017.8
2017-08-23T06:38:26.546Z,1017.8
2017-08-23T06:39:28.045Z,1017.9
2017-08-23T06:40:29.457Z,1018.0
2017-08-23T06:41:30.930Z,1018.0
2017-08-23T06:42:32.336Z,1018.0
2017-08-23T06:43:33.807Z,1018.1
2017-08-23T06:44:35.214Z,1018.2
2017-08-23T06:45:36.688Z,1018.4
2017-08-23T06:46:38.095Z,1018.7
2017-08-23T06:47:39.570Z,1018.9
2017-08-23T06:48:40.978Z,1019.0
2017-08-23T06:49:42.449Z,1019.2
2017-08-23T06:50:43.858Z,1019.3
2017-08-23T06:51:45.331Z,1019.4
2017-08-23T06:52:46.737Z,1019.5
2017-08-23T06:53:48.140Z,1019.6
2017-08-23T06:54:49.651Z,1019.8
2017-08-23T06:55:51.061Z,1020.1
2017-08-23T06:56:52.465Z,1020.3
2017-08-23T06:57:53.972Z,1020.6
2017-08-23T06:58:55.382Z,1020.7
2017-08-23T06:59:56.790Z,1020.9
2017-08-23T07:00:58.291Z,1021.2
2017-08-23T07:01:59.702Z,1021.4
2017-08-23T07:03:01.112Z,1021.5
2017-08-23T07:04:02.613Z,1021.8
2017-08-23T07:05:04.018Z,1022.0
2017-08-23T07:06:05.429Z,1022.1
2017-08-23T07:07:06.934Z,1022.3
2017-08-23T07:08:08.344Z,1022.5
2017-08-23T07:09:09.755Z,1022.7
2017-08-23T07:10:11.254Z,1023.0
2017-08-23T07:11:12.672Z,1023.2
2017-08-23T07:12:14.135Z,1023.4
2017-08-23T07:13:15.544Z,1023.6
2017-08-23T07:14:16.953Z,1023.8
2017-08-23T07:15:18.456Z,1024.1
2017-08-23T07:16:19.868Z,1024.1
2017-08-23T07:17:21.277Z,1024.3
2017-08-23T07:18:22.776Z,1024.6
2017-08-23T07:19:24.200Z,1024.8
2017-08-23T07:20:25.657Z,1025.0
2017-08-23T07:21:27.066Z,1025.2
2017-08-23T07:22:28.779Z,1025.5
2017-08-23T07:23:30.189Z,1025.7
2017-08-23T07:24:31.605Z,1026.0
2017-08-23T07:25:33.063Z,1026.2
2017-08-23T07:26:34.469Z,1026.4
2017-08-23T07:27:35.881Z,1026.6
2017-08-23T07:28:37.392Z,1026.8
2017-08-23T07:29:38.805Z,1027.0
2017-08-23T07:30:40.214Z,1027.1
2017-08-23T07:31:41.706Z,1027.3
2017-08-23T07:32:43.113Z,1027.5
2017-08-23T07:33:44.523Z,1027.8
2017-08-23T07:34:46.027Z,1027.9
2017-08-23T07:35:47.438Z,1028.0
2017-08-23T07:36:48.847Z,1028.2
2017-08-23T07:37:50.354Z,1028.2
2017-08-23T07:38:51.758Z,1028.2
2017-08-23T07:39:53.166Z,1028.5
2017-08-23T07:40:54.670Z,1028.7
2017-08-23T07:41:56.077Z,1028.7
2017-08-23T07:42:57.487Z,1029.0
2017-08-23T07:43:58.991Z,1029.2
2017-08-23T07:45:00.403Z,1029.4
2017-08-23T07:46:01.870Z,1029.4
2017-08-23T07:47:03.285Z,1029.6
2017-08-23T07:48:04.751Z,1029.8
2017-08-23T07:49:06.158Z,1030.1
2017-08-23T07:50:07.566Z,1030.3
2017-08-23T07:51:09.073Z,1030.6
2017-08-23T07:52:10.482Z,1031.0
2017-08-23T07:53:11.891Z,1031.1
2017-08-23T07:54:13.394Z,1031.4
2017-08-23T07:55:14.803Z,1031.6
2017-08-23T07:56:16.274Z,1031.8
2017-08-23T07:57:17.684Z,1032.1
2017-08-23T07:58:19.155Z,1032.2
2017-08-23T07:59:20.565Z,1032.5
2017-08-23T08:00:21.974Z,1032.8
2017-08-23T08:01:23.476Z,1033.0
2017-08-23T08:02:24.891Z,1033.3
2017-08-23T08:03:26.300Z,1033.4
2017-08-23T08:04:27.800Z,1033.7
2017-08-23T08:05:29.205Z,1033.9
2017-08-23T08:06:30.633Z,1034.1
2017-08-23T08:07:32.120Z,1034.4
2017-08-23T08:08:33.527Z,1034.5
2017-08-23T08:09:34.935Z,1034.7
2017-08-23T08:10:36.439Z,1035.0
2017-08-23T08:11:37.852Z,1035.3
2017-08-23T08:12:39.261Z,1035.6
2017-08-23T08:13:40.759Z,1035.8
2017-08-23T08:14:42.174Z,1035.9
2017-08-23T08:15:43.582Z,1036.3
2017-08-23T08:16:45.081Z,1036.5
2017-08-23T08:17:46.492Z,1036.8
2017-08-23T08:18:47.962Z,1037.1
2017-08-23T08:19:49.374Z,1037.4
2017-08-23T08:20:50.784Z,1037.6
2017-08-23T08:21:52.282Z,1037.8
2017-08-23T08:22:53.694Z,1038.1
2017-08-23T08:23:55.103Z,1038.2
2017-08-23T08:24:56.604Z,1038.5
2017-08-23T08:25:58.012Z,1038.6
2017-08-23T08:26:59.488Z,1038.8
2017-08-23T08:28:00.901Z,1038.8
2017-08-23T08:29:02.370Z,1039.0
2017-08-23T08:30:03.799Z,1039.1
2017-08-23T08:31:05.252Z,1039.3
2017-08-23T08:32:06.654Z,1039.5
2017-08-23T08:33:08.139Z,1039.7
2017-08-23T08:34:09.551Z,1039.7
2017-08-23T08:35:10.963Z,1039.9
2017-08-23T08:36:12.446Z,1040.1
2017-08-23T08:37:13.856Z,1040.3
2017-08-23T08:38:15.262Z,1040.6
2017-08-23T08:39:16.768Z,1040.9
2017-08-23T08:40:18.187Z,1041.3
2017-08-23T08:41:19.597Z,1041.6
2017-08-23T08:42:21.015Z,1041.9
2017-08-23T08:43:22.426Z,1042.2
2017-08-23T08:44:23.836Z,1042.5
2017-08-23T08:45:25.308Z,1042.5
2017-08-23T08:46:26.722Z,1042.9
2017-08-23T08:47:28.189Z,1043.2
2017-08-23T08:48:29.598Z,1043.5
2017-08-23T08:49:31.069Z,1044.0
2017-08-23T08:50:32.482Z,1044.4
2017-08-23T08:51:33.896Z,1044.7
2017-08-23T08:52:35.391Z,1044.9
2017-08-23T08:53:36.803Z,1045.0
2017-08-23T08:54:38.215Z,1045.3
2017-08-23T08:55:39.713Z,1045.7
2017-08-23T08:56:41.127Z,1046.1
2017-08-23T08:57:42.599Z,1046.4
2017-08-23T08:58:44.021Z,1046.5
2017-08-23T08:59:45.473Z,1046.8
2017-08-23T09:00:47.295Z,1047.1
2017-08-23T09:01:48.763Z,1047.4
2017-08-23T09:02:50.176Z,1047.7
2017-08-23T09:03:51.649Z,1047.4
2017-08-23T09:04:53.067Z,1047.3
2017-08-23T09:05:54.480Z,1047.3
2017-08-23T09:06:55.966Z,1047.6
2017-08-23T09:07:57.377Z,1047.9
2017-08-23T09:08:58.789Z,1048.4
2017-08-23T09:10:00.286Z,1048.8
2017-08-23T09:11:01.700Z,1048.9
2017-08-23T09:12:03.166Z,1049.0
2017-08-23T09:13:04.575Z,1049.1
2017-08-23T09:14:06.047Z,1049.2
2017-08-23T09:15:07.457Z,1049.3
2017-08-23T09:16:08.926Z,1049.1
2017-08-23T09:17:10.923Z,1048.8
2017-08-23T09:18:12.423Z,1048.7
2017-08-23T09:19:13.878Z,1048.9
2017-08-23T09:20:15.303Z,1049.0
2017-08-23T09:21:16.716Z,1049.3
2017-08-23T09:22:18.185Z,1049.7
2017-08-23T09:23:19.602Z,1049.7
2017-08-23T09:24:21.066Z,1050.0
2017-08-23T09:25:22.483Z,1049.7
2017-08-23T09:26:23.895Z,1049.9
2017-08-23T09:27:25.387Z,1050.2
2017-08-23T09:28:26.799Z,1050.5
2017-08-23T09:29:28.217Z,1050.8
2017-08-23T09:30:29.720Z,1051.1
2017-08-23T09:31:31.132Z,1051.4
2017-08-23T09:32:32.590Z,1051.6
2017-08-23T09:33:34.006Z,1051.5
2017-08-23T09:34:35.467Z,1051.9
2017-08-23T09:35:36.888Z,1052.3
2017-08-23T09:36:38.297Z,1052.4
2017-08-23T09:37:39.787Z,1052.8
2017-08-23T09:38:41.203Z,1053.2
2017-08-23T09:39:42.618Z,1053.7
2017-08-23T09:40:44.109Z,1054.1
2017-08-23T09:41:45.523Z,1054.5
2017-08-23T09:42:46.991Z,1055.0
2017-08-23T09:43:48.407Z,1055.6
2017-08-23T09:44:49.874Z,1056.1
2017-08-23T09:45:51.296Z,1056.8
2017-08-23T09:46:52.710Z,1057.9
2017-08-23T09:47:54.195Z,1059.1
2017-08-23T09:48:55.607Z,1059.6
2017-08-23T09:49:57.019Z,1059.6
2017-08-23T09:50:58.519Z,1060.3
2017-08-23T09:51:59.932Z,1061.0
2017-08-23T09:53:01.392Z,1061.7
2017-08-23T09:54:02.808Z,1063.0
2017-08-23T09:55:04.226Z,1063.9
2017-08-23T09:56:05.642Z,1064.9
2017-08-23T09:57:07.054Z,1065.5
2017-08-23T09:58:08.475Z,1066.3
2017-08-23T09:59:09.893Z,1068.0
2017-08-23T10:00:11.312Z,1067.8
2017-08-23T10:01:12.731Z,1067.1
2017-08-23T10:02:14.149Z,1067.7
2017-08-23T10:03:15.565Z,1069.5
2017-08-23T10:04:16.983Z,1070.4
2017-08-23T10:05:18.398Z,1072.1
2017-08-23T10:06:19.814Z,1074.7
2017-08-23T10:07:21.239Z,1074.4
2017-08-23T10:08:22.654Z,1073.0
2017-08-23T10:09:24.081Z,1074.1
2017-08-23T10:10:25.504Z,1076.6
2017-08-23T10:11:26.921Z,1077.8
2017-08-23T10:12:28.347Z,1080.0
2017-08-23T10:13:29.765Z,1077.0
2017-08-23T10:14:31.227Z,1079.3
2017-08-23T10:15:32.673Z,1083.0
2017-08-23T10:16:34.094Z,1082.7
2017-08-23T10:17:35.512Z,1083.1
2017-08-23T10:18:36.935Z,1086.5
2017-08-23T10:19:38.360Z,1087.1
2017-08-23T10:20:39.782Z,1090.7
2017-08-23T10:21:41.263Z,1095.2
2017-08-23T10:22:42.682Z,1095.9
2017-08-23T10:23:44.113Z,1097.3
2017-08-23T10:24:45.530Z,1098.5
2017-08-23T10:25:46.944Z,1099.4
2017-08-23T10:26:48.391Z,1100.4
2017-08-23T10:27:49.811Z,1101.5
2017-08-23T10:28:51.243Z,1102.8
2017-08-23T10:29:52.662Z,1103.7
2017-08-23T10:30:54.095Z,1104.3
2017-08-23T10:31:55.518Z,1104.3
2017-08-23T10:32:56.937Z,1105.2
2017-08-23T10:33:58.355Z,1105.8
2017-08-23T10:34:59.776Z,1107.6
2017-08-23T10:36:01.202Z,1107.4
2017-08-23T10:37:02.628Z,1106.9
2017-08-23T10:38:04.062Z,1106.9
2017-08-23T10:39:05.504Z,1106.4
2017-08-23T10:40:06.925Z,1106.8
2017-08-23T10:41:08.350Z,1107.1
2017-08-23T10:42:09.830Z,1100.8
2017-08-23T10:43:11.250Z,1096.5
2017-08-23T10:44:12.699Z,1099.8
2017-08-23T10:45:14.121Z,1096.4
2017-08-23T10:46:15.536Z,1093.6
2017-08-23T10:47:17.039Z,1094.0
2017-08-23T10:48:18.454Z,1096.8
2017-08-23T10:49:19.876Z,1098.0
2017-08-23T10:50:21.339Z,1099.3
2017-08-23T10:51:22.763Z,1099.8
2017-08-23T10:52:24.183Z,1099.6
2017-08-23T10:53:25.683Z,1100.7
2017-08-23T10:54:27.108Z,1100.1
2017-08-23T10:55:28.547Z,1101.0
2017-08-23T10:56:29.968Z,1104.2
2017-08-23T10:57:31.383Z,1103.6
2017-08-23T10:58:32.860Z,1099.9
2017-08-23T10:59:34.284Z,1100.8
2017-08-23T11:00:35.716Z,1101.8
2017-08-23T11:01:37.199Z,1101.6
2017-08-23T11:02:38.627Z,1102.9
2017-08-23T11:03:40.037Z,1105.0
2017-08-23T11:04:41.532Z,1107.0
2017-08-23T11:05:42.949Z,1109.2
2017-08-23T11:06:44.370Z,1109.5
2017-08-23T11:07:45.824Z,1110.0
2017-08-23T11:08:47.242Z,1111.8
2017-08-23T11:09:48.665Z,1113.3
2017-08-23T11:10:50.141Z,1114.2
2017-08-23T11:11:51.564Z,1114.3
2017-08-23T11:12:52.984Z,1113.9
2017-08-23T11:13:54.464Z,1114.9
2017-08-23T11:14:55.885Z,1116.7
2017-08-23T11:15:57.305Z,1117.2
2017-08-23T11:16:58.787Z,1118.2
2017-08-23T11:18:00.206Z,1119.4
2017-08-23T11:19:01.627Z,1120.7
2017-08-23T11:20:03.109Z,1122.2
2017-08-23T11:21:04.533Z,1123.3
2017-08-23T11:22:05.955Z,1124.9
2017-08-23T11:23:07.429Z,1125.8
2017-08-23T11:24:08.850Z,1126.3
2017-08-23T11:25:10.311Z,1127.3
2017-08-23T11:26:11.732Z,1127.9
2017-08-23T11:27:13.200Z,1128.3
2017-08-23T11:28:14.614Z,1128.5
2017-08-23T11:29:16.075Z,1128.6
2017-08-23T11:30:17.489Z,1128.9
2017-08-23T11:31:18.951Z,1128.6
2017-08-23T11:32:20.388Z,1127.1
2017-08-23T11:33:21.843Z,1122.9
2017-08-23T11:34:23.261Z,1117.2
2017-08-23T11:35:24.717Z,1112.5
2017-08-23T11:36:26.134Z,1109.1
2017-08-23T11:37:27.552Z,1107.1
2017-08-23T11:38:29.036Z,1105.5
2017-08-23T11:39:30.451Z,1103.8
2017-08-23T11:40:31.872Z,1101.6
2017-08-23T11:41:33.357Z,1100.3
2017-08-23T11:42:34.806Z,1098.7
2017-08-23T11:43:36.345Z,1097.0
2017-08-23T11:44:37.757Z,1095.4
2017-08-23T11:45:39.188Z,1093.2
2017-08-23T11:46:40.612Z,1090.7
2017-08-23T11:47:42.039Z,1087.2
2017-08-23T11:48:43.457Z,1084.6
2017-08-23T11:49:44.888Z,1081.7
2017-08-23T11:50:46.310Z,1079.7
2017-08-23T11:51:47.735Z,1078.2
2017-08-23T11:52:49.158Z,1077.3
2017-08-23T11:53:50.581Z,1076.6
2017-08-23T11:54:52.007Z,1076.7
2017-08-23T11:55:53.424Z,1077.3
2017-08-23T11:56:54.846Z,1078.1
2017-08-23T11:57:56.274Z,1078.9
2017-08-23T11:58:57.690Z,1079.2
2017-08-23T11:59:59.114Z,1079.4
2017-08-23T12:01:00.539Z,1077.5
2017-08-23T12:02:01.963Z,1073.9
2017-08-23T12:03:03.395Z,1070.0
2017-08-23T12:04:04.824Z,1066.5
2017-08-23T12:05:06.242Z,1063.3
2017-08-23T12:06:07.665Z,1060.3
2017-08-23T12:07:09.077Z,1057.9
2017-08-23T12:08:10.505Z,1055.8
2017-08-23T12:09:11.922Z,1053.8
2017-08-23T12:10:13.349Z,1052.3
2017-08-23T12:11:14.774Z,1051.5
2017-08-23T12:12:16.192Z,1051.3
2017-08-23T12:13:17.618Z,1051.8
2017-08-23T12:14:19.036Z,1051.8
2017-08-23T12:15:20.460Z,1051.8
2017-08-23T12:16:21.884Z,1052.3
2017-08-23T12:17:23.310Z,1053.0
2017-08-23T12:18:24.734Z,1053.6
2017-08-23T12:19:26.158Z,1053.4
2017-08-23T12:20:27.579Z,1052.6
2017-08-23T12:21:29.003Z,1051.7
2017-08-23T12:22:30.426Z,1050.4
2017-08-23T12:23:31.846Z,1048.6
2017-08-23T12:24:33.269Z,1046.5
2017-08-23T12:25:34.713Z,1044.7
2017-08-23T12:26:36.140Z,1043.2
2017-08-23T12:27:37.559Z,1042.0
2017-08-23T12:28:38.977Z,1040.7
2017-08-23T12:29:40.406Z,1039.7
2017-08-23T12:30:41.821Z,1039.2
2017-08-23T12:31:43.249Z,1038.4
2017-08-23T12:32:44.668Z,1037.4
2017-08-23T12:33:46.094Z,1036.6
2017-08-23T12:34:47.531Z,1036.5
2017-08-23T12:35:48.949Z,1037.1
2017-08-23T12:36:50.362Z,1038.6
2017-08-23T12:37:51.797Z,1040.1
2017-08-23T12:38:53.218Z,1041.0
2017-08-23T12:39:54.640Z,1042.0
2017-08-23T12:40:56.063Z,1043.1
2017-08-23T12:41:57.481Z,1044.0
2017-08-23T12:42:58.902Z,1045.0
2017-08-23T12:44:00.397Z,1045.8
2017-08-23T12:45:01.832Z,1046.4
2017-08-23T12:46:03.256Z,1047.0
2017-08-23T12:47:04.673Z,1047.2